createdAt,value
2023-05-01T00:02:25.404Z,75889.39
2023-05-01T00:04:52.412Z,75895.98
2023-05-01T00:07:20.461Z,75897.21
2023-05-01T00:09:49.462Z,75902.15
2023-05-01T00:12:16.732Z,75909.55
2023-05-01T00:14:45.097Z,75920.25
2023-05-01T00:17:12.291Z,75933.02
2023-05-01T00:19:40.432Z,75950.70
2023-05-01T00:22:07.345Z,75961.82
2023-05-01T00:24:35.326Z,75971.69
2023-05-01T00:27:02.993Z,75981.16
2023-05-01T00:29:29.993Z,75985.27
2023-05-01T00:31:56.997Z,75988.16
2023-05-01T00:34:24.662Z,75988.57
2023-05-01T00:36:52.100Z,75991.02
2023-05-01T00:39:19.755Z,75994.73
2023-05-01T00:41:47.775Z,75995.98
2023-05-01T00:44:14.833Z,75998.03
2023-05-01T00:46:43.135Z,76006.67
2023-05-01T00:49:10.432Z,76010.79
2023-05-01T00:51:37.336Z,76012.02
2023-05-01T00:54:05.122Z,76013.26
2023-05-01T00:56:32.205Z,76014.91
2023-05-01T00:58:59.185Z,76016.96
2023-05-01T01:01:26.369Z,76016.55
2023-05-01T01:03:54.134Z,76016.96
2023-05-01T01:06:33.219Z,76017.38
2023-05-01T01:09:21.219Z,76019.84
2023-05-01T01:12:23.819Z,76020.66
2023-05-01T01:15:06.323Z,76020.25
2023-05-01T01:17:49.460Z,76019.42
2023-05-01T01:20:42.316Z,76015.31
2023-05-01T01:23:32.656Z,76011.20
2023-05-01T01:26:06.772Z,76004.61
2023-05-01T01:28:39.873Z,76006.27
2023-05-01T01:31:33.476Z,75993.51
2023-05-01T01:34:01.977Z,75989.80
2023-05-01T01:36:56.184Z,75982.80
2023-05-01T01:39:38.079Z,75981.16
2023-05-01T01:42:08.621Z,75977.86
2023-05-01T01:44:44.046Z,75972.52
2023-05-01T01:47:12.006Z,75966.76
2023-05-01T01:49:45.192Z,75958.11
2023-05-01T01:52:14.302Z,75946.59
2023-05-01T01:54:47.584Z,75940.01
2023-05-01T01:57:16.180Z,75934.24
2023-05-01T01:59:43.197Z,75928.90
2023-05-01T02:02:10.792Z,75931.36
2023-05-01T02:04:38.562Z,75928.89
2023-05-01T02:07:05.717Z,75930.54
2023-05-01T02:09:32.938Z,75936.71
2023-05-01T02:12:02.377Z,75942.06
2023-05-01T02:14:29.445Z,75947.83
2023-05-01T02:16:58.319Z,75951.52
2023-05-01T02:19:25.775Z,75962.23
2023-05-01T02:21:54.645Z,75970.05
2023-05-01T02:24:23.834Z,75982.39
2023-05-01T02:26:54.876Z,75996.38
2023-05-01T02:29:21.947Z,76003.79
2023-05-01T02:31:50.139Z,76012.02
2023-05-01T02:34:17.450Z,76017.38
2023-05-01T02:36:44.599Z,76018.19
2023-05-01T02:39:11.506Z,76017.37
2023-05-01T02:41:38.920Z,76017.37
2023-05-01T02:44:06.214Z,76016.96
2023-05-01T02:46:36.329Z,76012.43
2023-05-01T02:49:04.643Z,76009.55
2023-05-01T02:51:32.256Z,76014.91
2023-05-01T02:53:59.290Z,76013.67
2023-05-01T02:56:28.103Z,76011.20
2023-05-01T02:58:57.587Z,76013.26
2023-05-01T03:03:50.796Z,76015.73
2023-05-01T03:06:19.943Z,76021.48
2023-05-01T03:08:48.706Z,76026.02
2023-05-01T03:11:32.532Z,76021.90
2023-05-01T03:13:59.699Z,76025.19
2023-05-01T03:16:28.458Z,76029.71
2023-05-01T03:18:57.124Z,76033.83
2023-05-01T03:21:24.384Z,76035.48
2023-05-01T03:23:52.352Z,76032.19
2023-05-01T03:26:19.538Z,76028.07
2023-05-01T03:28:47.839Z,76019.84
2023-05-01T03:31:17.521Z,76007.91
2023-05-01T03:33:45.060Z,75991.86
2023-05-01T03:36:12.611Z,75976.21
2023-05-01T03:38:39.993Z,75965.11
2023-05-01T03:41:10.955Z,75949.47
2023-05-01T03:43:57.166Z,75930.13
2023-05-01T03:46:37.260Z,75921.48
2023-05-01T03:49:05.367Z,75915.32
2023-05-01T03:51:35.954Z,75909.55
2023-05-01T03:54:03.492Z,75905.43
2023-05-01T03:56:36.805Z,75900.50
2023-05-01T03:59:04.474Z,75897.21
2023-05-01T04:01:36.210Z,75896.38
2023-05-01T04:04:03.902Z,75892.68
2023-05-01T04:06:34.127Z,75894.33
2023-05-01T04:09:02.013Z,75893.91
2023-05-01T04:11:29.540Z,75900.09
2023-05-01T04:13:56.632Z,75898.85
2023-05-01T04:16:25.164Z,75896.38
2023-05-01T04:18:53.861Z,75894.33
2023-05-01T04:21:22.806Z,75892.67
2023-05-01T04:23:53.122Z,75886.51
2023-05-01T04:26:23.036Z,75875.81
2023-05-01T04:28:51.310Z,75860.99
2023-05-01T04:31:21.904Z,75846.59
2023-05-01T04:33:49.722Z,75835.07
2023-05-01T04:36:17.286Z,75820.67
2023-05-01T04:38:44.835Z,75812.02
2023-05-01T04:41:12.196Z,75798.04
2023-05-01T04:43:39.544Z,75790.63
2023-05-01T04:46:07.238Z,75773.77
2023-05-01T04:48:36.241Z,75761.42
2023-05-01T04:51:04.328Z,75749.07
2023-05-01T04:53:33.798Z,75736.31
2023-05-01T04:56:02.489Z,75724.38
2023-05-01T04:58:32.400Z,75713.27
2023-05-01T05:01:04.018Z,75701.74
2023-05-01T05:03:31.400Z,75699.69
2023-05-01T05:05:59.855Z,75693.52
2023-05-01T05:08:27.216Z,75679.11
2023-05-01T05:10:59.040Z,75665.54
2023-05-01T05:13:42.136Z,75642.08
2023-05-01T05:16:15.853Z,75623.16
2023-05-01T05:18:43.166Z,75612.45
2023-05-01T05:21:11.191Z,75605.05
2023-05-01T05:23:42.421Z,75586.53
2023-05-01T05:26:09.646Z,75566.38
2023-05-01T05:28:39.428Z,75550.73
2023-05-01T05:31:08.390Z,75540.45
2023-05-01T05:33:37.073Z,75520.70
2023-05-01T05:36:04.576Z,75487.37
2023-05-01T05:38:35.989Z,75445.40
2023-05-01T05:41:03.773Z,75423.59
2023-05-01T05:43:31.161Z,75406.73
2023-05-01T05:45:59.929Z,75383.27
2023-05-01T05:48:28.063Z,75367.63
2023-05-01T05:50:55.563Z,75334.31
2023-05-01T05:53:25.923Z,75303.86
2023-05-01T05:55:53.718Z,75272.18
2023-05-01T05:58:21.623Z,75244.61
2023-05-01T06:00:49.739Z,75213.75
2023-05-01T06:03:19.960Z,75167.67
2023-05-01T06:05:48.280Z,75138.05
2023-05-01T06:08:17.239Z,75111.73
2023-05-01T06:10:45.347Z,75103.48
2023-05-01T06:13:15.706Z,75118.71
2023-05-01T06:15:45.509Z,75137.23
2023-05-01T06:18:13.344Z,75128.59
2023-05-01T06:20:42.932Z,75114.19
2023-05-01T06:23:10.610Z,75094.44
2023-05-01T06:25:42.965Z,75064.00
2023-05-01T06:28:11.898Z,75061.94
2023-05-01T06:30:39.191Z,75050.42
2023-05-01T06:33:08.178Z,75037.66
2023-05-01T06:35:39.084Z,75026.55
2023-05-01T06:38:06.781Z,75005.16
2023-05-01T06:40:35.931Z,74970.60
2023-05-01T06:43:04.933Z,74924.52
2023-05-01T06:45:32.399Z,74910.54
2023-05-01T06:47:59.619Z,74882.15
2023-05-01T06:50:28.452Z,74829.48
2023-05-01T06:52:56.006Z,74779.30
2023-05-01T06:55:25.348Z,74752.15
2023-05-01T06:57:56.853Z,74747.63
2023-05-01T07:00:25.318Z,74750.50
2023-05-01T07:02:56.098Z,74747.63
2023-05-01T07:05:23.804Z,74731.17
2023-05-01T07:08:00.862Z,74729.94
2023-05-01T07:10:30.863Z,74717.19
2023-05-01T07:13:03.701Z,74701.14
2023-05-01T07:15:31.290Z,74700.73
2023-05-01T07:18:01.419Z,74710.59
2023-05-01T07:20:30.675Z,74726.23
2023-05-01T07:23:05.955Z,74730.35
2023-05-01T07:25:38.478Z,74728.29
2023-05-01T07:28:08.315Z,74712.66
2023-05-01T07:30:38.105Z,74690.86
2023-05-01T07:33:07.498Z,74671.93
2023-05-01T07:35:34.891Z,74677.27
2023-05-01T07:38:03.961Z,74674.80
2023-05-01T07:40:35.200Z,74661.23
2023-05-01T07:43:08.529Z,74637.38
2023-05-01T07:45:39.430Z,74635.73
2023-05-01T07:48:07.840Z,74602.00
2023-05-01T07:50:35.506Z,74586.36
2023-05-01T07:53:02.945Z,74593.77
2023-05-01T07:55:34.009Z,74572.79
2023-05-01T07:58:03.322Z,74538.23
2023-05-01T08:00:39.953Z,74504.09
2023-05-01T08:03:08.295Z,74460.08
2023-05-01T08:05:37.380Z,74433.33
2023-05-01T08:08:05.051Z,74415.64
2023-05-01T08:10:32.236Z,74396.73
2023-05-01T08:13:00.527Z,74388.50
2023-05-01T08:15:29.020Z,74395.90
2023-05-01T08:17:56.357Z,74397.14
2023-05-01T08:20:24.102Z,74372.86
2023-05-01T08:22:51.485Z,74360.52
2023-05-01T08:25:19.709Z,74353.13
2023-05-01T08:27:47.968Z,74321.86
2023-05-01T08:30:17.630Z,74279.48
2023-05-01T08:32:47.814Z,74259.34
2023-05-01T08:35:15.361Z,74258.10
2023-05-01T08:37:44.167Z,74289.36
2023-05-01T08:40:11.691Z,74311.16
2023-05-01T08:42:42.097Z,74308.29
2023-05-01T08:45:10.927Z,74336.26
2023-05-01T08:47:40.000Z,74362.99
2023-05-01T08:50:12.465Z,74340.37
2023-05-01T08:52:46.181Z,74329.67
2023-05-01T08:55:15.025Z,74342.84
2023-05-01T08:57:46.113Z,74354.36
2023-05-01T09:00:21.304Z,74337.48
2023-05-01T09:02:51.970Z,74320.21
2023-05-01T09:05:20.300Z,74285.25
2023-05-01T09:07:47.779Z,74235.07
2023-05-01T09:10:17.841Z,74180.36
2023-05-01T09:12:49.819Z,74145.40
2023-05-01T09:15:18.056Z,74124.02
2023-05-01T09:17:45.742Z,74137.17
2023-05-01T09:20:12.953Z,74135.93
2023-05-01T09:22:41.225Z,74117.02
2023-05-01T09:25:11.105Z,74090.69
2023-05-01T09:27:41.056Z,74064.37
2023-05-01T09:30:13.013Z,74045.04
2023-05-01T09:32:41.960Z,74020.77
2023-05-01T09:35:15.472Z,74019.12
2023-05-01T09:37:44.845Z,74019.94
2023-05-01T09:40:16.380Z,74006.78
2023-05-01T09:42:54.352Z,73979.64
2023-05-01T09:45:24.222Z,73940.56
2023-05-01T09:47:53.351Z,73917.94
2023-05-01T09:50:59.266Z,73896.55
2023-05-01T09:53:41.559Z,73892.85
2023-05-01T09:56:10.631Z,73868.17
2023-05-01T09:58:40.613Z,73845.55
2023-05-01T10:01:10.443Z,73818.40
2023-05-01T10:03:37.993Z,73823.75
2023-05-01T10:06:07.437Z,73876.81
2023-05-01T10:08:53.617Z,73904.77
2023-05-01T10:11:22.639Z,73876.80
2023-05-01T10:14:10.241Z,73869.82
2023-05-01T10:16:40.026Z,73906.42
2023-05-01T10:19:08.794Z,73921.64
2023-05-01T10:21:37.443Z,73913.00
2023-05-01T10:24:07.922Z,73924.93
2023-05-01T10:26:35.269Z,73943.44
2023-05-01T10:29:03.455Z,73951.26
2023-05-01T10:31:33.455Z,73942.20
2023-05-01T10:34:03.433Z,73883.39
2023-05-01T10:36:42.505Z,73818.40
2023-05-01T10:39:37.967Z,73773.16
2023-05-01T10:42:12.362Z,73751.37
2023-05-01T10:44:40.370Z,73722.16
2023-05-01T10:47:28.037Z,73674.05
2023-05-01T10:50:09.814Z,73630.86
2023-05-01T10:52:56.805Z,73616.05
2023-05-01T10:55:40.318Z,73678.98
2023-05-01T10:58:07.581Z,73749.31
2023-05-01T11:00:35.446Z,73793.73
2023-05-01T11:03:45.192Z,73780.98
2023-05-01T11:06:14.825Z,73785.09
2023-05-01T11:08:42.356Z,73825.81
2023-05-01T11:11:25.336Z,73841.02
2023-05-01T11:14:06.023Z,73822.11
2023-05-01T11:16:42.663Z,73808.54
2023-05-01T11:19:32.064Z,73813.47
2023-05-01T11:22:08.954Z,73815.11
2023-05-01T11:24:37.351Z,73849.25
2023-05-01T11:27:08.174Z,73894.49
2023-05-01T11:29:51.660Z,73957.42
2023-05-01T11:32:25.380Z,74039.69
2023-05-01T11:34:53.237Z,74075.48
2023-05-01T11:37:22.074Z,74100.98
2023-05-01T11:39:54.121Z,74119.90
2023-05-01T11:42:23.171Z,74128.52
2023-05-01T11:45:11.508Z,74153.21
2023-05-01T11:47:39.933Z,74222.31
2023-05-01T11:50:08.780Z,74296.36
2023-05-01T11:52:51.618Z,74403.71
2023-05-01T11:55:20.585Z,74497.92
2023-05-01T11:57:55.705Z,74557.57
2023-05-01T12:00:32.869Z,74598.29
2023-05-01T12:03:10.099Z,74642.72
2023-05-01T12:05:42.706Z,74704.42
2023-05-01T12:08:24.390Z,74751.33
2023-05-01T12:10:56.238Z,74774.36
2023-05-01T12:13:39.001Z,74792.88
2023-05-01T12:16:18.510Z,74829.48
2023-05-01T12:18:58.118Z,74865.28
2023-05-01T12:21:32.640Z,74895.73
2023-05-01T12:24:19.459Z,74917.11
2023-05-01T12:26:50.675Z,74926.98
2023-05-01T12:29:18.613Z,74937.28
2023-05-01T12:31:47.097Z,74933.16
2023-05-01T12:34:14.938Z,74937.27
2023-05-01T12:37:08.189Z,74941.39
2023-05-01T12:39:41.646Z,74958.26
2023-05-01T12:42:13.421Z,74974.72
2023-05-01T12:44:40.983Z,74995.70
2023-05-01T12:47:08.902Z,75008.45
2023-05-01T12:49:37.443Z,75013.40
2023-05-01T12:52:15.937Z,75007.63
2023-05-01T12:54:43.720Z,75008.86
2023-05-01T12:57:19.434Z,75018.33
2023-05-01T12:59:50.744Z,75033.95
2023-05-01T13:02:18.755Z,75055.77
2023-05-01T13:04:49.629Z,75065.64
2023-05-01T13:07:21.580Z,75070.16
2023-05-01T13:09:54.974Z,75061.11
2023-05-01T13:12:22.584Z,75058.23
2023-05-01T13:14:54.419Z,75058.23
2023-05-01T13:17:26.281Z,75058.23
2023-05-01T13:20:07.308Z,75060.70
2023-05-01T13:22:39.513Z,75056.59
2023-05-01T13:25:20.861Z,75058.23
2023-05-01T13:27:50.208Z,75060.70
2023-05-01T13:30:23.580Z,75075.92
2023-05-01T13:32:52.336Z,75098.15
2023-05-01T13:35:25.587Z,75114.60
2023-05-01T13:37:55.243Z,75130.23
2023-05-01T13:40:23.203Z,75134.76
2023-05-01T13:42:54.217Z,75135.99
2023-05-01T13:45:23.190Z,75136.00
2023-05-01T13:47:53.088Z,75128.17
2023-05-01T13:50:23.873Z,75135.17
2023-05-01T13:52:54.276Z,75142.16
2023-05-01T13:55:24.801Z,75150.40
2023-05-01T13:57:53.496Z,75170.96
2023-05-01T14:00:23.088Z,75180.84
2023-05-01T14:02:50.394Z,75176.31
2023-05-01T14:05:18.195Z,75182.89
2023-05-01T14:07:52.959Z,75196.48
2023-05-01T14:10:27.777Z,75201.41
2023-05-01T14:12:58.996Z,75213.76
2023-05-01T14:15:31.030Z,75224.45
2023-05-01T14:18:01.233Z,75231.45
2023-05-01T14:20:32.081Z,75242.14
2023-05-01T14:23:00.166Z,75250.78
2023-05-01T14:25:29.998Z,75259.84
2023-05-01T14:27:58.551Z,75258.19
2023-05-01T14:30:34.006Z,75268.06
2023-05-01T14:33:02.661Z,75277.53
2023-05-01T14:35:30.658Z,75289.88
2023-05-01T14:38:18.567Z,75298.10
2023-05-01T14:40:47.938Z,75298.52
2023-05-01T14:43:20.421Z,75296.45
2023-05-01T14:45:53.298Z,75293.58
2023-05-01T14:48:25.215Z,75303.86
2023-05-01T14:50:55.673Z,75309.21
2023-05-01T14:53:26.092Z,75306.74
2023-05-01T14:55:54.398Z,75317.44
2023-05-01T14:58:25.606Z,75327.73
2023-05-01T15:00:55.860Z,75333.48
2023-05-01T15:03:26.429Z,75338.83
2023-05-01T15:05:54.651Z,75337.19
2023-05-01T15:08:21.996Z,75345.41
2023-05-01T15:11:00.714Z,75350.77
2023-05-01T15:13:29.310Z,75358.17
2023-05-01T15:15:57.426Z,75358.98
2023-05-01T15:18:26.810Z,75361.88
2023-05-01T15:20:55.877Z,75369.69
2023-05-01T15:23:24.145Z,75381.21
2023-05-01T15:25:53.942Z,75385.33
2023-05-01T15:28:21.266Z,75393.98
2023-05-01T15:30:52.295Z,75405.48
2023-05-01T15:33:20.521Z,75412.07
2023-05-01T15:35:51.357Z,75410.84
2023-05-01T15:38:22.314Z,75413.30
2023-05-01T15:40:51.425Z,75420.30
2023-05-01T15:43:25.514Z,75432.64
2023-05-01T15:45:53.076Z,75438.40
2023-05-01T15:48:22.205Z,75442.93
2023-05-01T15:50:49.468Z,75447.45
2023-05-01T15:53:17.407Z,75452.39
2023-05-01T15:55:44.734Z,75458.56
2023-05-01T15:58:13.848Z,75465.15
2023-05-01T16:00:45.068Z,75474.61
2023-05-01T16:03:12.642Z,75487.38
2023-05-01T16:05:49.322Z,75496.42
2023-05-01T16:08:25.661Z,75506.29
2023-05-01T16:10:54.156Z,75515.35
2023-05-01T16:13:22.319Z,75522.75
2023-05-01T16:15:50.421Z,75529.34
2023-05-01T16:18:21.008Z,75537.16
2023-05-01T16:20:56.339Z,75547.45
2023-05-01T16:23:25.262Z,75558.14
2023-05-01T16:25:53.159Z,75570.48
2023-05-01T16:28:22.890Z,75573.78
2023-05-01T16:30:50.200Z,75582.01
2023-05-01T16:33:23.643Z,75592.70
2023-05-01T16:35:53.691Z,75601.77
2023-05-01T16:38:20.988Z,75611.22
2023-05-01T16:40:52.152Z,75618.21
2023-05-01T16:43:22.061Z,75626.45
2023-05-01T16:45:49.977Z,75634.27
2023-05-01T16:48:27.972Z,75642.50
2023-05-01T16:51:03.251Z,75649.49
2023-05-01T16:53:32.360Z,75660.60
2023-05-01T16:56:01.213Z,75670.47
2023-05-01T16:58:29.495Z,75679.11
2023-05-01T17:00:59.951Z,75688.17
2023-05-01T17:03:28.277Z,75697.22
2023-05-01T17:05:56.490Z,75708.33
2023-05-01T17:08:26.092Z,75716.15
2023-05-01T17:10:56.123Z,75724.80
2023-05-01T17:13:23.360Z,75737.13
2023-05-01T17:15:53.422Z,75747.42
2023-05-01T17:18:20.718Z,75756.07
2023-05-01T17:20:55.746Z,75764.71
2023-05-01T17:23:28.605Z,75775.82
2023-05-01T17:25:58.530Z,75786.10
2023-05-01T17:28:27.170Z,75798.03
2023-05-01T17:30:54.785Z,75809.96
2023-05-01T17:33:22.444Z,75822.31
2023-05-01T17:35:50.199Z,75835.07
2023-05-01T17:38:17.774Z,75846.17
2023-05-01T17:40:46.616Z,75857.30
2023-05-01T17:43:15.158Z,75869.23
2023-05-01T17:45:45.736Z,75878.69
2023-05-01T17:48:13.596Z,75890.21
2023-05-01T17:50:42.582Z,75901.73
2023-05-01T17:53:12.134Z,75909.55
2023-05-01T17:55:41.057Z,75919.84
2023-05-01T17:58:08.146Z,75931.36
2023-05-01T18:00:38.171Z,75940.83
2023-05-01T18:03:06.797Z,75950.30
2023-05-01T18:05:36.346Z,75958.52
2023-05-01T18:08:07.099Z,75972.10
2023-05-01T18:10:34.323Z,75984.86
2023-05-01T18:13:02.566Z,75991.04
2023-05-01T18:15:29.845Z,76004.61
2023-05-01T18:17:58.177Z,76014.49
2023-05-01T18:20:25.683Z,76023.54
2023-05-01T18:22:54.781Z,76033.01
2023-05-01T18:25:22.925Z,76042.89
2023-05-01T18:27:50.967Z,76052.35
2023-05-01T18:30:18.240Z,76063.88
2023-05-01T18:32:48.851Z,76071.27
2023-05-01T18:35:19.112Z,76077.86
2023-05-01T18:37:46.768Z,76089.80
2023-05-01T18:40:13.978Z,76098.02
2023-05-01T18:42:41.969Z,76102.97
2023-05-01T18:45:12.456Z,76112.02
2023-05-01T18:47:43.357Z,76120.26
2023-05-01T18:50:11.846Z,76127.25
2023-05-01T18:52:39.940Z,76135.06
2023-05-01T18:55:13.902Z,76144.12
2023-05-01T18:57:43.795Z,76152.77
2023-05-01T19:00:13.960Z,76161.40
2023-05-01T19:02:41.460Z,76170.05
2023-05-01T19:05:10.570Z,76176.63
2023-05-01T19:07:37.881Z,76181.98
2023-05-01T19:10:05.330Z,76185.27
2023-05-01T19:12:32.738Z,76194.73
2023-05-01T19:14:59.869Z,76202.55
2023-05-01T19:17:28.417Z,76205.85
2023-05-01T19:19:55.643Z,76212.02
2023-05-01T19:22:22.885Z,76215.73
2023-05-01T19:24:51.805Z,76223.55
2023-05-01T19:27:19.756Z,76229.31
2023-05-01T19:29:46.968Z,76235.06
2023-05-01T19:32:15.917Z,76237.95
2023-05-01T19:34:46.416Z,76244.53
2023-05-01T19:37:14.800Z,76250.30
2023-05-01T19:39:43.174Z,76254.41
2023-05-01T19:42:12.214Z,76263.05
2023-05-01T19:44:39.351Z,76270.87
2023-05-01T19:47:06.641Z,76279.11
2023-05-01T19:49:34.520Z,76281.98
2023-05-01T19:52:05.007Z,76288.98
2023-05-01T19:54:32.569Z,76295.56
2023-05-01T19:57:00.377Z,76300.51
2023-05-01T19:59:27.875Z,76303.38
2023-05-01T20:01:55.158Z,76309.98
2023-05-01T20:04:24.385Z,76313.27
2023-05-01T20:06:53.925Z,76319.44
2023-05-01T20:09:21.242Z,76327.26
2023-05-01T20:11:51.115Z,76335.08
2023-05-01T20:14:20.591Z,76338.77
2023-05-01T20:16:49.336Z,76340.42
2023-05-01T20:19:17.969Z,76345.36
2023-05-01T20:21:45.459Z,76351.54
2023-05-01T20:24:15.200Z,76356.07
2023-05-01T20:26:44.757Z,76361.42
2023-05-01T20:29:12.212Z,76365.11
2023-05-01T20:31:40.373Z,76371.70
2023-05-01T20:34:07.788Z,76375.41
2023-05-01T20:36:35.787Z,76381.58
2023-05-01T20:39:03.254Z,76387.34
2023-05-01T20:41:32.220Z,76391.88
2023-05-01T20:43:59.737Z,76398.05
2023-05-01T20:46:27.101Z,76404.23
2023-05-01T20:48:54.765Z,76407.91
2023-05-01T20:51:23.102Z,76410.39
2023-05-01T20:53:50.686Z,76417.80
2023-05-01T20:56:20.158Z,76419.85
2023-05-01T20:58:48.685Z,76421.50
2023-05-01T21:01:15.876Z,76425.61
2023-05-01T21:03:43.927Z,76430.55
2023-05-01T21:06:11.426Z,76434.26
2023-05-01T21:08:39.066Z,76439.20
2023-05-01T21:11:07.154Z,76448.66
2023-05-01T21:13:36.998Z,76453.19
2023-05-01T21:16:05.760Z,76463.07
2023-05-01T21:18:33.610Z,76470.89
2023-05-01T21:21:01.980Z,76479.12
2023-05-01T21:23:30.383Z,76487.35
2023-05-01T21:25:58.197Z,76493.95
2023-05-01T21:28:26.046Z,76503.40
2023-05-01T21:30:56.636Z,76510.40
2023-05-01T21:33:23.718Z,76512.46
2023-05-01T21:35:50.902Z,76517.40
2023-05-01T21:38:18.248Z,76523.16
2023-05-01T21:40:46.396Z,76531.80
2023-05-01T21:43:16.614Z,76534.27
2023-05-01T21:45:45.752Z,76535.09
2023-05-01T21:48:17.037Z,76538.39
2023-05-01T21:50:44.243Z,76538.80
2023-05-01T21:53:11.383Z,76544.56
2023-05-01T21:55:38.498Z,76547.86
2023-05-01T21:58:05.742Z,76551.55
2023-05-01T22:00:33.286Z,76554.03
2023-05-01T22:03:07.524Z,76556.09
2023-05-01T22:05:35.853Z,76561.02
2023-05-01T22:08:03.553Z,76562.67
2023-05-01T22:10:31.014Z,76568.42
2023-05-01T22:12:59.517Z,76570.48
2023-05-01T22:15:26.842Z,76573.79
2023-05-01T22:18:00.184Z,76572.96
2023-05-01T22:20:29.001Z,76575.84
2023-05-01T22:22:57.748Z,76577.08
2023-05-01T22:25:26.091Z,76579.55
2023-05-01T22:27:54.863Z,76581.60
2023-05-01T22:30:24.616Z,76585.30
2023-05-01T22:32:51.840Z,76591.07
2023-05-01T22:35:20.487Z,76596.84
2023-05-01T22:37:47.729Z,76600.95
2023-05-01T22:40:16.705Z,76608.36
2023-05-01T22:42:44.498Z,76614.52
2023-05-01T22:45:12.427Z,76616.58
2023-05-01T22:47:43.206Z,76619.88
2023-05-01T22:50:11.599Z,76625.65
2023-05-01T22:52:38.856Z,76631.41
2023-05-01T22:55:06.531Z,76635.11
2023-05-01T22:57:33.907Z,76638.40
2023-05-01T23:00:02.488Z,76640.86
2023-05-01T23:02:31.085Z,76644.98
2023-05-01T23:05:00.899Z,76645.40
2023-05-01T23:07:29.105Z,76649.92
2023-05-01T23:09:57.108Z,76646.63
2023-05-01T23:12:25.845Z,76648.27
2023-05-01T23:14:52.972Z,76651.16
2023-05-01T23:17:20.229Z,76655.27
2023-05-01T23:19:47.421Z,76654.86
2023-05-01T23:22:14.643Z,76656.92
2023-05-01T23:24:43.456Z,76656.92
2023-05-01T23:27:10.820Z,76658.98
2023-05-01T23:29:39.866Z,76656.92
2023-05-01T23:32:10.999Z,76660.22
2023-05-01T23:34:40.143Z,76664.33
2023-05-01T23:37:08.433Z,76669.27
2023-05-01T23:39:35.722Z,76670.91
2023-05-01T23:42:02.925Z,76673.38
2023-05-01T23:44:30.734Z,76678.73
2023-05-01T23:46:57.887Z,76681.63
2023-05-01T23:49:25.151Z,76686.55
2023-05-01T23:51:53.588Z,76686.56
2023-05-01T23:54:22.681Z,76690.26
2023-05-01T23:56:50.181Z,76695.61
2023-05-01T23:59:17.389Z,76700.14
